createdAt,value
2019-05-18T00:01:31.902Z,15.27
2019-05-18T00:03:58.075Z,16.93
2019-05-18T00:06:24.275Z,18.57
2019-05-18T00:08:50.425Z,18.00
2019-05-18T00:11:16.607Z,16.77
2019-05-18T00:13:42.890Z,18.60
2019-05-18T00:16:09.042Z,17.77
2019-05-18T00:18:35.218Z,15.73
2019-05-18T00:21:01.703Z,17.57
2019-05-18T00:23:28.015Z,20.37
2019-05-18T00:25:54.172Z,19.40
2019-05-18T00:28:20.385Z,16.93
2019-05-18T00:30:46.536Z,18.20
2019-05-18T00:33:12.718Z,17.43
2019-05-18T00:35:38.931Z,18.00
2019-05-18T00:38:05.086Z,15.93
2019-05-18T00:40:31.263Z,16.43
2019-05-18T00:42:57.470Z,16.80
2019-05-18T00:45:23.623Z,17.20
2019-05-18T00:47:49.804Z,16.47
2019-05-18T00:50:16.203Z,16.63
2019-05-18T00:52:42.396Z,17.13
2019-05-18T00:55:09.150Z,18.03
2019-05-18T00:57:35.340Z,19.17
2019-05-18T01:00:01.996Z,19.17
2019-05-18T01:02:28.178Z,19.13
2019-05-18T01:04:54.384Z,18.70
2019-05-18T01:07:20.537Z,18.50
2019-05-18T01:09:46.706Z,18.30
2019-05-18T01:12:12.911Z,18.77
2019-05-18T01:14:39.066Z,18.57
2019-05-18T01:17:05.239Z,18.63
2019-05-18T01:19:31.439Z,18.70
2019-05-18T01:21:57.655Z,16.73
2019-05-18T01:24:23.816Z,16.90
2019-05-18T01:26:50.036Z,16.77
2019-05-18T01:29:16.193Z,16.83
2019-05-18T01:31:42.359Z,17.40
2019-05-18T01:34:08.574Z,16.70
2019-05-18T01:36:34.726Z,16.77
2019-05-18T01:39:00.881Z,14.57
2019-05-18T01:41:27.092Z,15.00
2019-05-18T01:43:53.265Z,13.93
2019-05-18T01:46:19.431Z,15.50
2019-05-18T01:48:45.646Z,15.57
2019-05-18T01:51:11.791Z,14.23
2019-05-18T01:53:37.962Z,14.20
2019-05-18T01:56:04.151Z,15.50
2019-05-18T01:58:30.301Z,17.03
2019-05-18T02:00:56.487Z,16.20
2019-05-18T02:03:25.911Z,15.20
2019-05-18T02:05:50.752Z,14.20
2019-05-18T02:08:16.920Z,13.63
2019-05-18T02:10:43.117Z,13.83
2019-05-18T02:13:09.277Z,14.37
2019-05-18T02:15:35.449Z,13.03
2019-05-18T02:18:01.666Z,14.63
2019-05-18T02:20:27.832Z,13.77
2019-05-18T02:22:54.032Z,15.27
2019-05-18T02:25:20.255Z,21.20
2019-05-18T02:27:46.403Z,25.03
2019-05-18T02:30:16.991Z,30.70
2019-05-18T02:32:40.682Z,25.83
2019-05-18T02:35:07.139Z,26.53
2019-05-18T02:37:33.302Z,22.90
2019-05-18T02:39:59.503Z,20.97
2019-05-18T02:42:25.696Z,21.90
2019-05-18T02:44:51.830Z,21.37
2019-05-18T02:47:18.044Z,18.57
2019-05-18T02:49:44.195Z,18.20
2019-05-18T02:52:10.359Z,18.43
2019-05-18T02:54:36.555Z,19.27
2019-05-18T02:57:02.829Z,18.03
2019-05-18T02:59:30.026Z,18.30
2019-05-18T03:01:56.215Z,17.23
2019-05-18T03:04:22.389Z,14.90
2019-05-18T03:06:48.569Z,15.97
2019-05-18T03:09:14.765Z,14.90
2019-05-18T03:11:41.045Z,15.10
2019-05-18T03:14:07.299Z,15.60
2019-05-18T03:16:33.520Z,15.80
2019-05-18T03:19:08.423Z,18.23
2019-05-18T03:21:28.429Z,13.53
2019-05-18T03:23:55.175Z,12.47
2019-05-18T03:26:21.323Z,12.50
2019-05-18T03:28:47.502Z,12.77
2019-05-18T03:31:13.736Z,12.37
2019-05-18T03:33:39.867Z,12.07
2019-05-18T03:36:06.030Z,11.80
2019-05-18T03:38:33.043Z,11.30
2019-05-18T03:40:59.205Z,12.57
2019-05-18T03:43:25.385Z,15.07
2019-05-18T03:45:51.881Z,12.33
2019-05-18T03:48:18.060Z,12.87
2019-05-18T03:50:44.228Z,12.07
2019-05-18T03:53:10.418Z,11.63
2019-05-18T03:55:36.704Z,11.20
2019-05-18T03:58:02.899Z,9.60
2019-05-18T04:00:29.098Z,10.83
2019-05-18T04:02:55.263Z,10.73
2019-05-18T04:05:21.442Z,10.60
2019-05-18T04:07:47.638Z,10.47
2019-05-18T04:10:17.401Z,11.33
2019-05-18T04:12:43.591Z,11.17
2019-05-18T04:15:10.297Z,14.03
2019-05-18T04:17:36.445Z,16.33
2019-05-18T04:20:04.810Z,15.20
2019-05-18T04:22:31.025Z,15.97
2019-05-18T04:24:58.279Z,14.87
2019-05-18T04:27:24.468Z,15.73
2019-05-18T04:29:50.676Z,14.90
2019-05-18T04:32:16.828Z,14.30
2019-05-18T04:34:43.019Z,14.87
2019-05-18T04:37:09.201Z,12.13
2019-05-18T04:39:35.361Z,10.83
2019-05-18T04:42:01.533Z,11.53
2019-05-18T04:44:27.720Z,10.47
2019-05-18T04:46:54.210Z,9.37
2019-05-18T04:49:20.368Z,8.63
2019-05-18T04:51:46.570Z,8.73
2019-05-18T04:54:12.767Z,8.23
2019-05-18T04:56:42.706Z,8.53
2019-05-18T04:59:07.159Z,8.23
2019-05-18T05:01:33.327Z,8.60
2019-05-18T05:03:59.520Z,8.20
2019-05-18T05:06:25.697Z,7.93
2019-05-18T05:08:52.323Z,7.63
2019-05-18T05:11:18.501Z,8.23
2019-05-18T05:13:44.727Z,8.03
2019-05-18T05:16:11.883Z,8.93
2019-05-18T05:18:38.045Z,9.60
2019-05-18T05:21:04.260Z,9.73
2019-05-18T05:23:30.411Z,9.97
2019-05-18T05:25:56.591Z,9.77
2019-05-18T05:28:22.809Z,9.07
2019-05-18T05:30:48.960Z,9.67
2019-05-18T05:33:15.580Z,10.30
2019-05-18T05:35:41.797Z,9.13
2019-05-18T05:38:07.982Z,8.57
2019-05-18T05:40:34.137Z,8.67
2019-05-18T05:43:00.347Z,8.37
2019-05-18T05:45:26.512Z,8.97
2019-05-18T05:47:52.670Z,9.33
2019-05-18T05:50:33.040Z,9.13
2019-05-18T05:52:46.942Z,8.43
2019-05-18T05:55:13.219Z,8.90
2019-05-18T05:57:39.434Z,8.87
2019-05-18T06:00:07.095Z,8.87
2019-05-18T06:02:33.280Z,8.17
2019-05-18T06:04:59.481Z,8.93
2019-05-18T06:07:25.643Z,8.67
2019-05-18T06:09:51.828Z,9.40
2019-05-18T06:12:18.037Z,8.93
2019-05-18T06:14:44.196Z,7.97
2019-05-18T06:17:10.513Z,9.03
2019-05-18T06:19:36.716Z,9.97
2019-05-18T06:22:02.931Z,9.80
2019-05-18T06:24:29.116Z,9.47
2019-05-18T06:26:55.511Z,8.03
2019-05-18T06:29:21.763Z,8.63
2019-05-18T06:32:12.608Z,8.93
2019-05-18T06:34:38.788Z,8.60
2019-05-18T06:37:04.975Z,8.73
2019-05-18T06:39:31.257Z,9.23
2019-05-18T06:41:57.557Z,8.90
2019-05-18T06:44:24.028Z,9.67
2019-05-18T06:46:50.217Z,10.20
2019-05-18T06:49:16.404Z,11.07
2019-05-18T06:51:42.682Z,10.70
2019-05-18T06:54:08.916Z,12.23
2019-05-18T06:56:36.271Z,11.90
2019-05-18T06:59:02.452Z,10.57
2019-05-18T07:01:28.650Z,9.97
2019-05-18T07:03:54.832Z,11.47
2019-05-18T07:06:21.119Z,11.10
2019-05-18T07:08:47.309Z,10.27
2019-05-18T07:11:13.479Z,10.63
2019-05-18T07:13:39.642Z,10.60
2019-05-18T07:16:05.836Z,10.73
2019-05-18T07:18:32.018Z,10.57
2019-05-18T07:20:58.169Z,10.40
2019-05-18T07:23:24.417Z,11.47
2019-05-18T07:25:50.589Z,10.33
2019-05-18T07:28:16.797Z,10.60
2019-05-18T07:30:43.311Z,11.43
2019-05-18T07:33:09.479Z,10.47
2019-05-18T07:35:35.659Z,10.07
2019-05-18T07:38:01.948Z,10.33
2019-05-18T07:40:28.132Z,9.93
2019-05-18T07:42:54.314Z,8.57
2019-05-18T07:45:20.511Z,9.17
2019-05-18T07:47:46.683Z,7.43
2019-05-18T07:50:13.162Z,8.40
2019-05-18T07:52:39.350Z,8.00
2019-05-18T07:55:05.711Z,7.20
2019-05-18T07:57:31.910Z,9.33
2019-05-18T07:59:58.119Z,8.97
2019-05-18T08:02:24.401Z,7.63
2019-05-18T08:04:50.574Z,8.67
2019-05-18T08:07:16.782Z,8.33
2019-05-18T08:09:42.943Z,8.47
2019-05-18T08:12:09.113Z,8.17
2019-05-18T08:14:35.337Z,8.17
2019-05-18T08:17:01.486Z,8.27
2019-05-18T08:19:27.779Z,7.90
2019-05-18T08:21:53.987Z,7.63
2019-05-18T08:24:20.509Z,8.13
2019-05-18T08:26:46.683Z,7.27
2019-05-18T08:32:15.827Z,7.07
2019-05-18T08:34:43.714Z,7.23
2019-05-18T08:37:10.123Z,7.97
2019-05-18T08:39:36.439Z,7.00
2019-05-18T08:42:02.811Z,6.57
2019-05-18T08:44:29.148Z,6.07
2019-05-18T08:46:55.467Z,7.10
2019-05-18T08:49:22.116Z,6.77
2019-05-18T08:51:48.455Z,6.60
2019-05-18T08:54:14.812Z,6.00
2019-05-18T08:56:41.193Z,5.73
2019-05-18T08:59:07.521Z,5.50
2019-05-18T09:01:33.872Z,6.27
2019-05-18T09:04:00.219Z,5.17
2019-05-18T09:06:26.586Z,6.03
2019-05-18T09:08:52.867Z,6.00
2019-05-18T09:11:19.065Z,6.70
2019-05-18T09:13:45.252Z,6.83
2019-05-18T09:16:11.460Z,6.57
2019-05-18T09:18:37.679Z,6.43
2019-05-18T09:21:03.862Z,7.20
2019-05-18T09:23:30.047Z,6.60
2019-05-18T09:25:56.229Z,6.13
2019-05-18T09:28:22.404Z,6.03
2019-05-18T09:30:49.541Z,6.93
2019-05-18T09:33:15.746Z,6.07
2019-05-18T09:35:41.907Z,6.20
2019-05-18T09:38:08.086Z,5.63
2019-05-18T09:40:34.277Z,6.07
2019-05-18T09:43:00.456Z,5.73
2019-05-18T09:45:26.627Z,5.63
2019-05-18T09:47:52.818Z,5.97
2019-05-18T09:50:19.142Z,5.67
2019-05-18T09:52:46.377Z,5.67
2019-05-18T09:55:13.722Z,5.47
2019-05-18T09:57:39.901Z,5.90
2019-05-18T10:00:08.162Z,6.03
2019-05-18T10:02:34.370Z,5.40
2019-05-18T10:05:00.558Z,5.27
2019-05-18T10:07:26.723Z,5.87
2019-05-18T10:09:52.913Z,6.57
2019-05-18T10:12:19.079Z,5.30
2019-05-18T10:14:45.757Z,4.97
2019-05-18T10:17:11.943Z,4.80
2019-05-18T10:19:39.932Z,5.47
2019-05-18T10:22:06.105Z,5.10
2019-05-18T10:24:32.316Z,4.87
2019-05-18T10:26:58.467Z,5.13
2019-05-18T10:29:24.656Z,5.27
2019-05-18T10:31:50.866Z,5.50
2019-05-18T10:34:17.546Z,5.97
2019-05-18T10:36:43.728Z,5.57
2019-05-18T10:39:09.979Z,5.47
2019-05-18T10:41:36.193Z,4.63
2019-05-18T10:44:02.480Z,5.13
2019-05-18T10:46:28.697Z,5.27
2019-05-18T10:48:54.849Z,5.13
2019-05-18T10:51:21.006Z,4.90
2019-05-18T10:53:47.218Z,4.50
2019-05-18T10:56:13.376Z,4.27
2019-05-18T10:58:39.553Z,4.80
2019-05-18T11:01:05.860Z,4.10
2019-05-18T11:03:32.038Z,4.80
2019-05-18T11:05:58.212Z,4.77
2019-05-18T11:08:24.410Z,4.40
2019-05-18T11:10:50.591Z,4.50
2019-05-18T11:13:17.389Z,4.60
2019-05-18T11:15:43.867Z,4.37
2019-05-18T11:18:10.148Z,4.77
2019-05-18T11:20:36.326Z,4.83
2019-05-18T11:23:02.722Z,4.67
2019-05-18T11:25:29.816Z,4.53
2019-05-18T11:27:56.030Z,5.10
2019-05-18T11:30:23.126Z,4.30
2019-05-18T11:32:49.332Z,5.13
2019-05-18T11:35:16.509Z,4.67
2019-05-18T11:37:42.702Z,4.53
2019-05-18T11:40:10.777Z,4.87
2019-05-18T11:42:36.969Z,4.83
2019-05-18T11:45:12.652Z,4.50
2019-05-18T11:47:39.010Z,4.90
2019-05-18T11:50:06.379Z,4.90
2019-05-18T11:52:32.599Z,4.80
2019-05-18T11:54:58.758Z,5.00
2019-05-18T11:57:24.934Z,4.87
2019-05-18T11:59:51.236Z,4.63
2019-05-18T12:02:17.393Z,4.23
2019-05-18T12:04:43.555Z,4.90
2019-05-18T12:07:09.867Z,5.00
2019-05-18T12:09:36.057Z,4.67
2019-05-18T12:12:02.237Z,4.03
2019-05-18T12:14:28.452Z,4.40
2019-05-18T12:16:54.595Z,4.40
2019-05-18T12:19:20.757Z,4.50
2019-05-18T12:21:46.975Z,4.97
2019-05-18T12:24:15.734Z,4.50
2019-05-18T12:26:41.313Z,4.57
2019-05-18T12:29:09.421Z,4.03
2019-05-18T12:31:35.580Z,3.80
2019-05-18T12:34:01.801Z,4.26
2019-05-18T12:36:28.009Z,4.00
2019-05-18T12:38:54.167Z,4.00
2019-05-18T12:41:22.247Z,5.00
2019-05-18T12:43:48.452Z,4.43
2019-05-18T12:46:14.611Z,4.40
2019-05-18T12:48:40.864Z,4.53
2019-05-18T12:51:07.102Z,4.27
2019-05-18T12:53:33.261Z,4.43
2019-05-18T12:55:59.491Z,4.20
2019-05-18T12:58:25.694Z,5.03
2019-05-18T13:00:51.877Z,4.80
2019-05-18T13:03:18.019Z,4.93
2019-05-18T13:05:44.238Z,4.37
2019-05-18T13:08:10.414Z,4.83
2019-05-18T13:10:36.601Z,4.50
2019-05-18T13:13:02.832Z,4.60
2019-05-18T13:15:28.978Z,4.83
2019-05-18T13:17:55.132Z,4.20
2019-05-18T13:20:21.494Z,4.17
2019-05-18T13:22:47.669Z,4.30
2019-05-18T13:25:14.521Z,3.90
2019-05-18T13:27:40.721Z,4.70
2019-05-18T13:30:09.102Z,4.10
2019-05-18T13:32:35.265Z,4.80
2019-05-18T13:35:01.528Z,5.13
2019-05-18T13:37:27.698Z,4.50
2019-05-18T13:39:53.961Z,4.40
2019-05-18T13:42:20.174Z,4.47
2019-05-18T13:44:46.333Z,4.20
2019-05-18T13:47:12.485Z,4.60
2019-05-18T13:49:38.721Z,4.20
2019-05-18T13:52:05.004Z,4.73
2019-05-18T13:54:31.160Z,4.83
2019-05-18T13:56:57.367Z,4.20
2019-05-18T13:59:23.529Z,4.70
2019-05-18T14:01:49.680Z,4.87
2019-05-18T14:04:15.914Z,4.23
2019-05-18T14:06:42.097Z,4.07
2019-05-18T14:09:08.442Z,4.43
2019-05-18T14:11:34.692Z,4.67
2019-05-18T14:14:00.843Z,4.30
2019-05-18T14:16:27.114Z,4.70
2019-05-18T14:18:53.325Z,4.27
2019-05-18T14:21:19.514Z,4.43
2019-05-18T14:23:45.687Z,4.00
2019-05-18T14:26:11.873Z,3.63
2019-05-18T14:28:38.044Z,3.93
2019-05-18T14:31:04.203Z,4.20
2019-05-18T14:33:30.461Z,4.43
2019-05-18T14:35:56.677Z,4.17
2019-05-18T14:38:22.830Z,4.17
2019-05-18T14:40:49.023Z,4.37
2019-05-18T14:43:15.206Z,4.40
2019-05-18T14:45:41.391Z,4.43
2019-05-18T14:48:07.589Z,4.37
2019-05-18T14:50:33.768Z,4.43
2019-05-18T14:52:59.920Z,3.93
2019-05-18T14:55:33.786Z,3.93
2019-05-18T14:57:54.207Z,4.10
2019-05-18T15:00:20.958Z,3.90
2019-05-18T15:02:47.930Z,4.40
2019-05-18T15:05:14.162Z,3.97
2019-05-18T15:07:40.326Z,4.50
2019-05-18T15:10:07.857Z,4.80
2019-05-18T15:12:34.016Z,4.30
2019-05-18T15:15:01.152Z,3.90
2019-05-18T15:17:27.371Z,4.60
2019-05-18T15:19:53.569Z,4.03
2019-05-18T15:22:19.706Z,3.73
2019-05-18T15:24:45.892Z,3.77
2019-05-18T15:27:12.085Z,4.40
2019-05-18T15:29:38.248Z,3.93
2019-05-18T15:32:04.449Z,4.47
2019-05-18T15:34:30.628Z,4.33
2019-05-18T15:36:56.835Z,4.17
2019-05-18T15:39:23.036Z,3.83
2019-05-18T15:41:49.213Z,3.87
2019-05-18T15:44:15.387Z,4.07
2019-05-18T15:46:41.604Z,4.27
2019-05-18T15:49:08.062Z,4.50
2019-05-18T15:51:34.354Z,4.60
2019-05-18T15:54:00.647Z,4.40
2019-05-18T15:56:27.036Z,4.13
2019-05-18T15:58:53.216Z,4.30
2019-05-18T16:01:19.653Z,4.70
2019-05-18T16:03:45.919Z,4.10
2019-05-18T16:06:12.209Z,3.97
2019-05-18T16:08:38.410Z,4.60
2019-05-18T16:11:04.588Z,4.90
2019-05-18T16:13:30.780Z,4.30
2019-05-18T16:15:56.964Z,4.60
2019-05-18T16:18:23.146Z,4.20
2019-05-18T16:20:49.306Z,4.20
2019-05-18T16:23:15.544Z,5.00
2019-05-18T16:25:41.928Z,4.70
2019-05-18T16:28:08.085Z,4.10
2019-05-18T16:30:34.293Z,5.07
2019-05-18T16:33:00.487Z,6.10
2019-05-18T16:35:26.796Z,5.20
2019-05-18T16:37:53.048Z,5.50
2019-05-18T16:40:19.350Z,4.83
2019-05-18T16:42:46.609Z,4.83
2019-05-18T16:45:13.265Z,4.50
2019-05-18T16:47:39.541Z,4.70
2019-05-18T16:50:06.610Z,4.80
2019-05-18T16:52:32.805Z,4.50
2019-05-18T16:54:58.996Z,4.33
2019-05-18T16:57:25.314Z,4.93
2019-05-18T16:59:51.610Z,6.57
2019-05-18T17:02:30.650Z,4.97
2019-05-18T17:04:45.956Z,4.77
2019-05-18T17:07:12.163Z,5.13
2019-05-18T17:09:38.332Z,5.60
2019-05-18T17:12:04.504Z,5.47
2019-05-18T17:14:30.695Z,6.10
2019-05-18T17:16:56.956Z,5.90
2019-05-18T17:19:23.137Z,7.10
2019-05-18T17:21:49.345Z,6.40
2019-05-18T17:24:15.493Z,6.03
2019-05-18T17:26:52.196Z,6.30
2019-05-18T17:29:09.773Z,5.87
2019-05-18T17:31:35.939Z,6.47
2019-05-18T17:34:02.139Z,6.83
2019-05-18T17:36:28.335Z,6.57
2019-05-18T17:38:54.534Z,6.30
2019-05-18T17:41:20.716Z,6.37
2019-05-18T17:43:46.911Z,5.80
2019-05-18T17:46:13.090Z,5.97
2019-05-18T17:48:39.396Z,6.23
2019-05-18T17:51:05.620Z,6.17
2019-05-18T17:53:31.804Z,6.23
2019-05-18T17:55:57.992Z,6.90
2019-05-18T17:58:24.184Z,6.77
2019-05-18T18:00:50.351Z,6.77
2019-05-18T18:03:16.538Z,7.20
2019-05-18T18:05:42.739Z,6.80
2019-05-18T18:08:08.928Z,5.93
2019-05-18T18:10:35.100Z,6.63
2019-05-18T18:13:01.399Z,6.80
2019-05-18T18:15:27.548Z,7.87
2019-05-18T18:17:53.723Z,7.13
2019-05-18T18:20:21.835Z,8.27
2019-05-18T18:22:47.985Z,6.83
2019-05-18T18:25:14.171Z,7.03
2019-05-18T18:27:40.360Z,7.37
2019-05-18T18:30:08.020Z,6.97
2019-05-18T18:32:34.211Z,7.47
2019-05-18T18:35:00.448Z,7.20
2019-05-18T18:37:26.612Z,8.03
2019-05-18T18:39:52.983Z,7.30
2019-05-18T18:42:19.303Z,6.80
2019-05-18T18:44:45.467Z,7.95
2019-05-18T18:47:11.640Z,7.90
2019-05-18T18:49:37.853Z,7.00
2019-05-18T18:52:05.388Z,7.87
2019-05-18T18:54:31.584Z,6.90
2019-05-18T18:56:58.099Z,9.53
2019-05-18T18:59:24.271Z,7.63
2019-05-18T19:01:50.437Z,7.27
2019-05-18T19:04:18.584Z,8.10
2019-05-18T19:06:44.722Z,7.57
2019-05-18T19:09:11.008Z,8.47
2019-05-18T19:11:37.197Z,8.03
2019-05-18T19:14:05.179Z,7.23
2019-05-18T19:16:31.465Z,7.33
2019-05-18T19:18:57.691Z,7.07
2019-05-18T19:21:23.845Z,7.90
2019-05-18T19:23:50.026Z,9.27
2019-05-18T19:26:16.239Z,7.60
2019-05-18T19:28:42.402Z,7.60
2019-05-18T19:31:08.570Z,8.67
2019-05-18T19:33:34.778Z,7.97
2019-05-18T19:36:00.944Z,8.47
2019-05-18T19:38:27.080Z,8.20
2019-05-18T19:40:53.355Z,8.40
2019-05-18T19:43:19.512Z,7.93
2019-05-18T19:45:45.685Z,8.63
2019-05-18T19:48:11.885Z,7.87
2019-05-18T19:50:38.038Z,7.90
2019-05-18T19:53:04.197Z,7.90
2019-05-18T19:55:30.403Z,8.70
2019-05-18T19:58:08.143Z,8.50
2019-05-18T20:00:24.743Z,7.47
2019-05-18T20:02:50.963Z,7.10
2019-05-18T20:05:17.414Z,7.50
2019-05-18T20:07:43.586Z,7.70
2019-05-18T20:10:10.807Z,7.27
2019-05-18T20:12:36.966Z,7.20
2019-05-18T20:15:04.437Z,7.23
2019-05-18T20:17:30.646Z,7.30
2019-05-18T20:19:56.808Z,7.87
2019-05-18T20:22:22.976Z,7.43
2019-05-18T20:24:49.158Z,7.40
2019-05-18T20:27:15.317Z,8.50
2019-05-18T20:29:41.609Z,7.70
2019-05-18T20:32:07.818Z,8.10
2019-05-18T20:34:33.984Z,7.17
2019-05-18T20:37:00.151Z,7.37
2019-05-18T20:39:26.358Z,6.57
2019-05-18T20:41:52.730Z,6.93
2019-05-18T20:44:18.920Z,7.67
2019-05-18T20:46:45.125Z,7.73
2019-05-18T20:49:12.188Z,7.87
2019-05-18T20:51:38.349Z,7.97
2019-05-18T20:54:04.565Z,8.00
2019-05-18T20:56:30.730Z,8.00
2019-05-18T20:58:56.986Z,7.97
2019-05-18T21:01:23.205Z,8.30
2019-05-18T21:03:49.817Z,8.33
2019-05-18T21:06:15.984Z,8.50
2019-05-18T21:08:42.184Z,7.87
2019-05-18T21:11:08.350Z,7.07
2019-05-18T21:13:34.602Z,8.37
2019-05-18T21:16:00.795Z,7.93
2019-05-18T21:18:26.983Z,8.67
2019-05-18T21:20:53.130Z,7.53
2019-05-18T21:23:19.337Z,7.77
2019-05-18T21:25:45.514Z,7.20
2019-05-18T21:28:11.673Z,7.27
2019-05-18T21:30:38.045Z,7.53
2019-05-18T21:33:04.312Z,7.73
2019-05-18T21:35:30.471Z,7.53
2019-05-18T21:37:56.682Z,8.10
2019-05-18T21:40:25.916Z,7.33
2019-05-18T21:42:51.019Z,7.97
2019-05-18T21:45:17.328Z,6.87
2019-05-18T21:47:43.483Z,7.20
2019-05-18T21:50:09.947Z,6.53
2019-05-18T21:52:36.160Z,7.10
2019-05-18T21:55:06.293Z,6.63
2019-05-18T21:57:32.656Z,6.40
2019-05-18T21:59:58.864Z,7.13
2019-05-18T22:02:25.020Z,6.80
2019-05-18T22:04:51.493Z,6.63
2019-05-18T22:07:17.703Z,7.33
2019-05-18T22:09:43.882Z,7.37
2019-05-18T22:12:10.139Z,6.73
2019-05-18T22:14:36.441Z,6.33
2019-05-18T22:17:02.622Z,7.50
2019-05-18T22:19:28.873Z,7.07
2019-05-18T22:21:55.178Z,6.07
2019-05-18T22:24:21.351Z,6.40
2019-05-18T22:26:47.501Z,6.40
2019-05-18T22:29:13.692Z,9.77
2019-05-18T22:31:39.873Z,10.13
2019-05-18T22:34:06.056Z,10.07
2019-05-18T22:36:32.236Z,9.43
2019-05-18T22:38:58.413Z,10.73
2019-05-18T22:41:24.570Z,10.70
2019-05-18T22:43:50.812Z,10.73
2019-05-18T22:46:16.982Z,11.47
2019-05-18T22:48:43.137Z,11.67
2019-05-18T22:51:09.456Z,12.03
2019-05-18T22:53:35.631Z,12.27
2019-05-18T22:56:01.822Z,11.00
2019-05-18T22:58:27.989Z,10.83
2019-05-18T23:00:54.153Z,11.97
2019-05-18T23:03:20.312Z,12.30
2019-05-18T23:05:46.530Z,12.30
2019-05-18T23:08:12.703Z,11.17
2019-05-18T23:10:38.861Z,11.47
2019-05-18T23:13:05.054Z,10.50
2019-05-18T23:15:31.223Z,9.73
2019-05-18T23:17:57.382Z,10.10
2019-05-18T23:20:23.583Z,10.43
2019-05-18T23:22:49.748Z,10.23
2019-05-18T23:25:15.906Z,11.07
2019-05-18T23:27:42.108Z,9.57
2019-05-18T23:30:09.485Z,8.60
2019-05-18T23:32:35.663Z,9.87
2019-05-18T23:35:01.955Z,9.67
2019-05-18T23:37:28.142Z,9.33
2019-05-18T23:39:54.297Z,8.73
2019-05-18T23:42:20.495Z,9.57
2019-05-18T23:44:46.720Z,9.03
2019-05-18T23:47:12.892Z,9.27
2019-05-18T23:49:39.079Z,9.47
2019-05-18T23:52:05.231Z,8.60
2019-05-18T23:54:31.407Z,8.07
2019-05-18T23:56:57.603Z,8.13
2019-05-18T23:59:23.784Z,7.80
